sensor_id;sensor_type;location;lat;lon;timestamp;P1;durP1;ratioP1;P2;durP2;ratioP2
12024;SDS011;6073;53.230;10.444;2023-02-08T00:01:49;24.27;;;14.80;;
12024;SDS011;6073;53.230;10.444;2023-02-08T00:04:14;23.90;;;13.80;;
12024;SDS011;6073;53.230;10.444;2023-02-08T00:06:40;25.67;;;15.40;;
12024;SDS011;6073;53.230;10.444;2023-02-08T00:09:08;27.60;;;14.80;;
12024;SDS011;6073;53.230;10.444;2023-02-08T00:11:37;22.63;;;13.83;;
12024;SDS011;6073;53.230;10.444;2023-02-08T00:14:03;23.00;;;15.17;;
12024;SDS011;6073;53.230;10.444;2023-02-08T00:16:29;26.50;;;14.23;;
12024;SDS011;6073;53.230;10.444;2023-02-08T00:18:57;22.20;;;14.23;;
12024;SDS011;6073;53.230;10.444;2023-02-08T00:21:23;25.30;;;15.40;;
12024;SDS011;6073;53.230;10.444;2023-02-08T00:23:54;26.40;;;14.53;;
12024;SDS011;6073;53.230;10.444;2023-02-08T00:26:20;30.00;;;15.60;;
12024;SDS011;6073;53.230;10.444;2023-02-08T00:28:45;26.30;;;14.83;;
12024;SDS011;6073;53.230;10.444;2023-02-08T00:31:11;22.13;;;13.80;;
12024;SDS011;6073;53.230;10.444;2023-02-08T00:33:36;24.50;;;15.13;;
12024;SDS011;6073;53.230;10.444;2023-02-08T00:36:03;24.43;;;15.10;;
12024;SDS011;6073;53.230;10.444;2023-02-08T00:38:30;27.73;;;14.77;;
12024;SDS011;6073;53.230;10.444;2023-02-08T00:40:56;22.17;;;13.63;;
12024;SDS011;6073;53.230;10.444;2023-02-08T00:43:22;26.03;;;14.23;;
12024;SDS011;6073;53.230;10.444;2023-02-08T00:45:52;27.30;;;14.40;;
12024;SDS011;6073;53.230;10.444;2023-02-08T00:48:21;25.37;;;14.30;;
12024;SDS011;6073;53.230;10.444;2023-02-08T00:50:57;23.43;;;14.67;;
12024;SDS011;6073;53.230;10.444;2023-02-08T00:53:24;26.03;;;15.50;;
12024;SDS011;6073;53.230;10.444;2023-02-08T00:55:50;20.73;;;14.00;;
12024;SDS011;6073;53.230;10.444;2023-02-08T00:58:17;24.93;;;14.60;;
12024;SDS011;6073;53.230;10.444;2023-02-08T01:00:43;26.90;;;14.97;;
12024;SDS011;6073;53.230;10.444;2023-02-08T01:03:08;24.87;;;14.80;;
12024;SDS011;6073;53.230;10.444;2023-02-08T01:05:36;26.70;;;15.47;;
12024;SDS011;6073;53.230;10.444;2023-02-08T01:08:02;26.63;;;15.63;;
12024;SDS011;6073;53.230;10.444;2023-02-08T01:10:28;27.20;;;16.07;;
12024;SDS011;6073;53.230;10.444;2023-02-08T01:12:54;28.50;;;15.00;;
12024;SDS011;6073;53.230;10.444;2023-02-08T01:15:19;28.50;;;15.07;;
12024;SDS011;6073;53.230;10.444;2023-02-08T01:17:45;26.87;;;17.03;;
12024;SDS011;6073;53.230;10.444;2023-02-08T01:20:11;28.73;;;16.57;;
12024;SDS011;6073;53.230;10.444;2023-02-08T01:22:36;29.33;;;16.33;;
12024;SDS011;6073;53.230;10.444;2023-02-08T01:25:02;27.93;;;16.93;;
12024;SDS011;6073;53.230;10.444;2023-02-08T01:27:28;32.37;;;16.97;;
12024;SDS011;6073;53.230;10.444;2023-02-08T01:29:53;27.33;;;15.70;;
12024;SDS011;6073;53.230;10.444;2023-02-08T01:32:19;28.20;;;16.63;;
12024;SDS011;6073;53.230;10.444;2023-02-08T01:34:45;30.87;;;17.17;;
12024;SDS011;6073;53.230;10.444;2023-02-08T01:37:10;30.87;;;17.80;;
12024;SDS011;6073;53.230;10.444;2023-02-08T01:39:36;30.43;;;17.53;;
12024;SDS011;6073;53.230;10.444;2023-02-08T01:42:01;32.20;;;16.60;;
12024;SDS011;6073;53.230;10.444;2023-02-08T01:47:30;31.73;;;18.10;;
12024;SDS011;6073;53.230;10.444;2023-02-08T01:49:55;32.53;;;17.73;;
12024;SDS011;6073;53.230;10.444;2023-02-08T01:52:22;31.70;;;18.23;;
12024;SDS011;6073;53.230;10.444;2023-02-08T01:54:52;32.73;;;18.70;;
12024;SDS011;6073;53.230;10.444;2023-02-08T01:57:23;36.37;;;19.30;;
12024;SDS011;6073;53.230;10.444;2023-02-08T01:59:53;31.27;;;17.57;;
12024;SDS011;6073;53.230;10.444;2023-02-08T02:02:25;32.03;;;18.77;;
12024;SDS011;6073;53.230;10.444;2023-02-08T02:04:51;35.47;;;19.40;;
12024;SDS011;6073;53.230;10.444;2023-02-08T02:07:17;34.90;;;19.10;;
12024;SDS011;6073;53.230;10.444;2023-02-08T02:12:48;34.17;;;18.70;;
12024;SDS011;6073;53.230;10.444;2023-02-08T02:15:15;32.83;;;19.30;;
12024;SDS011;6073;53.230;10.444;2023-02-08T02:17:41;31.97;;;19.10;;
12024;SDS011;6073;53.230;10.444;2023-02-08T02:22:59;35.10;;;19.13;;
12024;SDS011;6073;53.230;10.444;2023-02-08T02:26:03;35.73;;;18.47;;
12024;SDS011;6073;53.230;10.444;2023-02-08T02:29:02;32.57;;;18.23;;
12024;SDS011;6073;53.230;10.444;2023-02-08T02:31:50;34.23;;;19.17;;
12024;SDS011;6073;53.230;10.444;2023-02-08T02:34:25;34.43;;;19.33;;
12024;SDS011;6073;53.230;10.444;2023-02-08T02:48:41;37.17;;;19.07;;
12024;SDS011;6073;53.230;10.444;2023-02-08T02:51:27;36.77;;;18.73;;
12024;SDS011;6073;53.230;10.444;2023-02-08T02:54:13;36.07;;;18.60;;
12024;SDS011;6073;53.230;10.444;2023-02-08T02:56:51;38.70;;;19.00;;
12024;SDS011;6073;53.230;10.444;2023-02-08T02:59:21;38.37;;;19.13;;
12024;SDS011;6073;53.230;10.444;2023-02-08T03:01:48;34.50;;;19.27;;
12024;SDS011;6073;53.230;10.444;2023-02-08T03:04:18;33.47;;;20.03;;
12024;SDS011;6073;53.230;10.444;2023-02-08T03:18:19;34.20;;;19.03;;
12024;SDS011;6073;53.230;10.444;2023-02-08T03:23:37;36.40;;;19.73;;
12024;SDS011;6073;53.230;10.444;2023-02-08T03:26:35;35.53;;;19.23;;
12024;SDS011;6073;53.230;10.444;2023-02-08T03:29:14;40.07;;;20.63;;
12024;SDS011;6073;53.230;10.444;2023-02-08T03:31:46;37.73;;;19.43;;
12024;SDS011;6073;53.230;10.444;2023-02-08T03:37:05;38.63;;;21.27;;
12024;SDS011;6073;53.230;10.444;2023-02-08T03:39:35;33.77;;;18.57;;
12024;SDS011;6073;53.230;10.444;2023-02-08T03:42:13;40.87;;;20.90;;
12024;SDS011;6073;53.230;10.444;2023-02-08T03:44:45;37.37;;;19.90;;
12024;SDS011;6073;53.230;10.444;2023-02-08T03:47:21;34.20;;;19.90;;
12024;SDS011;6073;53.230;10.444;2023-02-08T03:49:49;38.97;;;20.90;;
12024;SDS011;6073;53.230;10.444;2023-02-08T03:52:17;38.47;;;21.33;;
12024;SDS011;6073;53.230;10.444;2023-02-08T03:54:45;42.07;;;21.60;;
12024;SDS011;6073;53.230;10.444;2023-02-08T03:57:22;41.73;;;21.20;;
12024;SDS011;6073;53.230;10.444;2023-02-08T04:00:07;38.80;;;21.53;;
12024;SDS011;6073;53.230;10.444;2023-02-08T04:02:36;40.07;;;21.00;;
12024;SDS011;6073;53.230;10.444;2023-02-08T04:05:06;40.50;;;22.07;;
12024;SDS011;6073;53.230;10.444;2023-02-08T04:07:32;40.93;;;21.20;;
12024;SDS011;6073;53.230;10.444;2023-02-08T04:09:58;39.97;;;20.17;;
12024;SDS011;6073;53.230;10.444;2023-02-08T04:12:24;41.60;;;21.60;;
12024;SDS011;6073;53.230;10.444;2023-02-08T04:14:49;41.50;;;20.27;;
12024;SDS011;6073;53.230;10.444;2023-02-08T04:17:15;39.47;;;21.77;;
12024;SDS011;6073;53.230;10.444;2023-02-08T04:19:41;41.47;;;22.23;;
12024;SDS011;6073;53.230;10.444;2023-02-08T04:22:06;41.60;;;22.70;;
12024;SDS011;6073;53.230;10.444;2023-02-08T04:24:32;39.53;;;22.43;;
12024;SDS011;6073;53.230;10.444;2023-02-08T04:26:57;37.43;;;20.47;;
12024;SDS011;6073;53.230;10.444;2023-02-08T04:29:23;39.07;;;20.37;;
12024;SDS011;6073;53.230;10.444;2023-02-08T04:31:48;37.93;;;21.37;;
12024;SDS011;6073;53.230;10.444;2023-02-08T04:34:14;40.57;;;21.47;;
12024;SDS011;6073;53.230;10.444;2023-02-08T04:36:40;39.40;;;20.93;;
12024;SDS011;6073;53.230;10.444;2023-02-08T04:39:05;46.30;;;22.97;;
12024;SDS011;6073;53.230;10.444;2023-02-08T04:41:31;41.73;;;20.80;;
12024;SDS011;6073;53.230;10.444;2023-02-08T04:43:56;42.30;;;20.53;;
12024;SDS011;6073;53.230;10.444;2023-02-08T04:46:22;39.93;;;22.90;;
12024;SDS011;6073;53.230;10.444;2023-02-08T04:48:48;38.07;;;21.70;;
12024;SDS011;6073;53.230;10.444;2023-02-08T04:51:13;39.57;;;20.60;;
12024;SDS011;6073;53.230;10.444;2023-02-08T04:53:39;42.33;;;22.43;;
12024;SDS011;6073;53.230;10.444;2023-02-08T04:56:05;40.07;;;21.53;;
12024;SDS011;6073;53.230;10.444;2023-02-08T04:58:30;40.43;;;22.07;;
12024;SDS011;6073;53.230;10.444;2023-02-08T05:00:56;47.27;;;22.43;;
12024;SDS011;6073;53.230;10.444;2023-02-08T05:03:21;42.23;;;22.70;;
12024;SDS011;6073;53.230;10.444;2023-02-08T05:05:55;40.73;;;20.37;;
12024;SDS011;6073;53.230;10.444;2023-02-08T05:08:21;41.73;;;21.70;;
12024;SDS011;6073;53.230;10.444;2023-02-08T05:10:47;41.00;;;21.43;;
12024;SDS011;6073;53.230;10.444;2023-02-08T05:13:12;42.67;;;21.33;;
12024;SDS011;6073;53.230;10.444;2023-02-08T05:15:38;44.23;;;23.27;;
12024;SDS011;6073;53.230;10.444;2023-02-08T05:18:03;41.27;;;20.97;;
12024;SDS011;6073;53.230;10.444;2023-02-08T05:20:29;46.40;;;23.33;;
12024;SDS011;6073;53.230;10.444;2023-02-08T05:22:54;43.10;;;21.60;;
12024;SDS011;6073;53.230;10.444;2023-02-08T05:25:20;45.20;;;21.47;;
12024;SDS011;6073;53.230;10.444;2023-02-08T05:27:45;41.03;;;21.07;;
12024;SDS011;6073;53.230;10.444;2023-02-08T05:30:11;42.73;;;21.40;;
12024;SDS011;6073;53.230;10.444;2023-02-08T05:32:37;40.87;;;20.07;;
12024;SDS011;6073;53.230;10.444;2023-02-08T05:35:02;38.93;;;20.27;;
12024;SDS011;6073;53.230;10.444;2023-02-08T05:37:28;43.53;;;21.13;;
12024;SDS011;6073;53.230;10.444;2023-02-08T05:39:53;44.10;;;21.03;;
12024;SDS011;6073;53.230;10.444;2023-02-08T05:42:19;39.63;;;20.67;;
12024;SDS011;6073;53.230;10.444;2023-02-08T05:44:44;39.90;;;19.90;;
12024;SDS011;6073;53.230;10.444;2023-02-08T05:47:10;39.30;;;20.87;;
12024;SDS011;6073;53.230;10.444;2023-02-08T05:49:36;34.00;;;19.93;;
12024;SDS011;6073;53.230;10.444;2023-02-08T05:52:01;38.77;;;21.03;;
12024;SDS011;6073;53.230;10.444;2023-02-08T05:54:29;40.90;;;21.83;;
12024;SDS011;6073;53.230;10.444;2023-02-08T05:56:55;46.87;;;21.97;;
12024;SDS011;6073;53.230;10.444;2023-02-08T05:59:20;43.07;;;19.77;;
12024;SDS011;6073;53.230;10.444;2023-02-08T06:01:46;41.77;;;21.73;;
12024;SDS011;6073;53.230;10.444;2023-02-08T06:04:11;40.23;;;21.20;;
12024;SDS011;6073;53.230;10.444;2023-02-08T06:06:37;40.73;;;20.50;;
12024;SDS011;6073;53.230;10.444;2023-02-08T06:09:02;47.53;;;21.87;;
12024;SDS011;6073;53.230;10.444;2023-02-08T06:11:28;43.03;;;22.70;;
12024;SDS011;6073;53.230;10.444;2023-02-08T06:13:54;45.27;;;22.50;;
12024;SDS011;6073;53.230;10.444;2023-02-08T06:16:20;41.07;;;19.70;;
12024;SDS011;6073;53.230;10.444;2023-02-08T06:18:45;40.30;;;20.53;;
12024;SDS011;6073;53.230;10.444;2023-02-08T06:21:11;38.60;;;21.43;;
12024;SDS011;6073;53.230;10.444;2023-02-08T06:23:36;43.03;;;22.33;;
12024;SDS011;6073;53.230;10.444;2023-02-08T06:26:02;39.37;;;20.73;;
12024;SDS011;6073;53.230;10.444;2023-02-08T06:28:28;44.07;;;22.47;;
12024;SDS011;6073;53.230;10.444;2023-02-08T06:30:53;46.40;;;23.00;;
12024;SDS011;6073;53.230;10.444;2023-02-08T06:33:19;43.50;;;22.07;;
12024;SDS011;6073;53.230;10.444;2023-02-08T06:35:45;40.63;;;22.43;;
12024;SDS011;6073;53.230;10.444;2023-02-08T06:38:11;47.80;;;24.23;;
12024;SDS011;6073;53.230;10.444;2023-02-08T06:40:38;50.57;;;26.37;;
12024;SDS011;6073;53.230;10.444;2023-02-08T06:43:04;48.17;;;24.70;;
12024;SDS011;6073;53.230;10.444;2023-02-08T06:45:29;52.40;;;25.07;;
12024;SDS011;6073;53.230;10.444;2023-02-08T06:47:55;48.20;;;25.07;;
12024;SDS011;6073;53.230;10.444;2023-02-08T06:50:20;53.63;;;25.80;;
12024;SDS011;6073;53.230;10.444;2023-02-08T06:52:46;61.27;;;30.27;;
12024;SDS011;6073;53.230;10.444;2023-02-08T06:55:11;57.30;;;30.17;;
12024;SDS011;6073;53.230;10.444;2023-02-08T06:57:37;57.40;;;28.13;;
12024;SDS011;6073;53.230;10.444;2023-02-08T07:00:03;53.57;;;25.23;;
12024;SDS011;6073;53.230;10.444;2023-02-08T07:02:30;61.60;;;27.60;;
12024;SDS011;6073;53.230;10.444;2023-02-08T07:04:56;59.43;;;28.57;;
12024;SDS011;6073;53.230;10.444;2023-02-08T07:07:21;62.37;;;27.40;;
12024;SDS011;6073;53.230;10.444;2023-02-08T07:09:47;61.57;;;29.77;;
12024;SDS011;6073;53.230;10.444;2023-02-08T07:12:12;59.93;;;27.97;;
12024;SDS011;6073;53.230;10.444;2023-02-08T07:14:39;56.93;;;28.17;;
12024;SDS011;6073;53.230;10.444;2023-02-08T07:17:06;56.03;;;27.93;;
12024;SDS011;6073;53.230;10.444;2023-02-08T07:19:32;56.77;;;27.30;;
12024;SDS011;6073;53.230;10.444;2023-02-08T07:21:58;53.60;;;26.93;;
12024;SDS011;6073;53.230;10.444;2023-02-08T07:24:28;60.70;;;27.73;;
12024;SDS011;6073;53.230;10.444;2023-02-08T07:26:54;57.63;;;27.70;;
12024;SDS011;6073;53.230;10.444;2023-02-08T07:29:20;57.47;;;28.17;;
12024;SDS011;6073;53.230;10.444;2023-02-08T07:31:46;55.60;;;27.63;;
12024;SDS011;6073;53.230;10.444;2023-02-08T07:34:11;55.77;;;27.90;;
12024;SDS011;6073;53.230;10.444;2023-02-08T07:36:37;56.67;;;27.50;;
12024;SDS011;6073;53.230;10.444;2023-02-08T07:39:02;57.13;;;27.00;;
12024;SDS011;6073;53.230;10.444;2023-02-08T07:41:28;56.23;;;27.17;;
12024;SDS011;6073;53.230;10.444;2023-02-08T07:43:53;56.30;;;25.97;;
12024;SDS011;6073;53.230;10.444;2023-02-08T07:46:20;61.40;;;25.40;;
12024;SDS011;6073;53.230;10.444;2023-02-08T07:48:46;59.13;;;26.30;;
12024;SDS011;6073;53.230;10.444;2023-02-08T07:51:16;53.93;;;25.43;;
12024;SDS011;6073;53.230;10.444;2023-02-08T07:53:42;55.03;;;26.00;;
12024;SDS011;6073;53.230;10.444;2023-02-08T07:56:08;49.27;;;24.30;;
12024;SDS011;6073;53.230;10.444;2023-02-08T07:58:34;46.00;;;23.60;;
12024;SDS011;6073;53.230;10.444;2023-02-08T08:01:00;43.43;;;23.67;;
12024;SDS011;6073;53.230;10.444;2023-02-08T08:03:26;45.53;;;23.10;;
12024;SDS011;6073;53.230;10.444;2023-02-08T08:05:52;46.17;;;23.50;;
12024;SDS011;6073;53.230;10.444;2023-02-08T08:08:17;37.63;;;20.55;;
12024;SDS011;6073;53.230;10.444;2023-02-08T08:10:43;39.38;;;22.00;;
12024;SDS011;6073;53.230;10.444;2023-02-08T08:13:10;40.42;;;21.77;;
12024;SDS011;6073;53.230;10.444;2023-02-08T08:15:36;41.22;;;21.13;;
12024;SDS011;6073;53.230;10.444;2023-02-08T08:18:02;38.75;;;22.35;;
12024;SDS011;6073;53.230;10.444;2023-02-08T08:20:28;35.03;;;19.92;;
12024;SDS011;6073;53.230;10.444;2023-02-08T08:22:53;35.53;;;20.83;;
12024;SDS011;6073;53.230;10.444;2023-02-08T08:25:19;39.20;;;21.50;;
12024;SDS011;6073;53.230;10.444;2023-02-08T08:27:44;36.58;;;20.33;;
12024;SDS011;6073;53.230;10.444;2023-02-08T08:30:11;34.33;;;19.73;;
12024;SDS011;6073;53.230;10.444;2023-02-08T08:32:39;35.95;;;20.08;;
12024;SDS011;6073;53.230;10.444;2023-02-08T08:35:05;36.08;;;20.83;;
12024;SDS011;6073;53.230;10.444;2023-02-08T08:37:32;31.25;;;19.65;;
12024;SDS011;6073;53.230;10.444;2023-02-08T08:39:58;37.13;;;20.25;;
12024;SDS011;6073;53.230;10.444;2023-02-08T08:42:23;32.00;;;19.52;;
12024;SDS011;6073;53.230;10.444;2023-02-08T08:44:50;34.55;;;18.98;;
12024;SDS011;6073;53.230;10.444;2023-02-08T08:47:16;35.80;;;20.15;;
12024;SDS011;6073;53.230;10.444;2023-02-08T08:49:42;35.05;;;21.23;;
12024;SDS011;6073;53.230;10.444;2023-02-08T08:52:08;38.55;;;19.42;;
12024;SDS011;6073;53.230;10.444;2023-02-08T08:54:34;35.10;;;18.63;;
12024;SDS011;6073;53.230;10.444;2023-02-08T08:57:00;34.88;;;19.15;;
12024;SDS011;6073;53.230;10.444;2023-02-08T08:59:26;37.92;;;18.60;;
12024;SDS011;6073;53.230;10.444;2023-02-08T09:01:52;35.60;;;18.63;;
12024;SDS011;6073;53.230;10.444;2023-02-08T09:04:17;35.72;;;19.08;;
12024;SDS011;6073;53.230;10.444;2023-02-08T09:06:46;33.60;;;17.75;;
12024;SDS011;6073;53.230;10.444;2023-02-08T09:09:12;33.90;;;18.50;;
12024;SDS011;6073;53.230;10.444;2023-02-08T09:11:38;32.75;;;19.42;;
12024;SDS011;6073;53.230;10.444;2023-02-08T09:14:04;32.80;;;18.65;;
12024;SDS011;6073;53.230;10.444;2023-02-08T09:16:30;29.35;;;18.15;;
12024;SDS011;6073;53.230;10.444;2023-02-08T09:18:59;32.83;;;18.75;;
12024;SDS011;6073;53.230;10.444;2023-02-08T09:21:26;33.30;;;18.50;;
12024;SDS011;6073;53.230;10.444;2023-02-08T09:23:51;34.28;;;19.52;;
12024;SDS011;6073;53.230;10.444;2023-02-08T09:26:17;33.42;;;19.98;;
12024;SDS011;6073;53.230;10.444;2023-02-08T09:28:44;32.55;;;18.92;;
12024;SDS011;6073;53.230;10.444;2023-02-08T09:31:20;31.70;;;17.77;;
12024;SDS011;6073;53.230;10.444;2023-02-08T09:33:49;30.33;;;18.08;;
12024;SDS011;6073;53.230;10.444;2023-02-08T09:36:16;28.42;;;17.88;;
12024;SDS011;6073;53.230;10.444;2023-02-08T09:38:42;30.02;;;16.27;;
12024;SDS011;6073;53.230;10.444;2023-02-08T09:41:19;31.40;;;18.25;;
12024;SDS011;6073;53.230;10.444;2023-02-08T09:44:09;31.13;;;17.25;;
12024;SDS011;6073;53.230;10.444;2023-02-08T09:46:55;34.53;;;18.20;;
12024;SDS011;6073;53.230;10.444;2023-02-08T09:49:34;32.53;;;17.45;;
12024;SDS011;6073;53.230;10.444;2023-02-08T09:52:15;29.63;;;17.20;;
12024;SDS011;6073;53.230;10.444;2023-02-08T09:54:49;34.38;;;18.88;;
12024;SDS011;6073;53.230;10.444;2023-02-08T09:57:20;28.00;;;16.65;;
12024;SDS011;6073;53.230;10.444;2023-02-08T09:59:55;29.52;;;15.85;;
12024;SDS011;6073;53.230;10.444;2023-02-08T10:02:25;31.63;;;16.80;;
12024;SDS011;6073;53.230;10.444;2023-02-08T10:07:27;27.38;;;15.45;;
12024;SDS011;6073;53.230;10.444;2023-02-08T10:09:54;24.05;;;14.13;;
12024;SDS011;6073;53.230;10.444;2023-02-08T10:15:25;26.77;;;14.95;;
12024;SDS011;6073;53.230;10.444;2023-02-08T10:18:10;27.65;;;15.32;;
12024;SDS011;6073;53.230;10.444;2023-02-08T10:21:00;24.27;;;13.40;;
12024;SDS011;6073;53.230;10.444;2023-02-08T10:23:49;25.45;;;12.77;;
12024;SDS011;6073;53.230;10.444;2023-02-08T10:26:32;26.65;;;14.52;;
12024;SDS011;6073;53.230;10.444;2023-02-08T10:39:53;25.27;;;13.55;;
12024;SDS011;6073;53.230;10.444;2023-02-08T10:42:20;21.05;;;13.60;;
12024;SDS011;6073;53.230;10.444;2023-02-08T10:47:31;24.55;;;14.27;;
12024;SDS011;6073;53.230;10.444;2023-02-08T10:52:40;23.83;;;13.43;;
12024;SDS011;6073;53.230;10.444;2023-02-08T10:55:13;22.98;;;12.77;;
12024;SDS011;6073;53.230;10.444;2023-02-08T10:57:39;23.38;;;12.65;;
12024;SDS011;6073;53.230;10.444;2023-02-08T11:00:17;26.90;;;13.80;;
12024;SDS011;6073;53.230;10.444;2023-02-08T11:02:49;24.65;;;13.02;;
12024;SDS011;6073;53.230;10.444;2023-02-08T11:05:18;22.95;;;12.95;;
12024;SDS011;6073;53.230;10.444;2023-02-08T11:10:31;24.73;;;14.30;;
12024;SDS011;6073;53.230;10.444;2023-02-08T11:15:39;25.60;;;13.50;;
12024;SDS011;6073;53.230;10.444;2023-02-08T11:20:56;23.75;;;13.75;;
12024;SDS011;6073;53.230;10.444;2023-02-08T11:23:27;21.13;;;12.90;;
12024;SDS011;6073;53.230;10.444;2023-02-08T11:26:11;22.52;;;12.98;;
12024;SDS011;6073;53.230;10.444;2023-02-08T11:28:41;23.23;;;13.02;;
12024;SDS011;6073;53.230;10.444;2023-02-08T11:31:14;23.15;;;12.25;;
12024;SDS011;6073;53.230;10.444;2023-02-08T11:36:30;20.77;;;12.95;;
12024;SDS011;6073;53.230;10.444;2023-02-08T11:38:59;23.50;;;13.13;;
12024;SDS011;6073;53.230;10.444;2023-02-08T11:41:27;21.63;;;12.88;;
12024;SDS011;6073;53.230;10.444;2023-02-08T11:44:00;21.70;;;12.93;;
12024;SDS011;6073;53.230;10.444;2023-02-08T11:46:29;23.05;;;13.63;;
12024;SDS011;6073;53.230;10.444;2023-02-08T11:48:58;25.92;;;14.27;;
12024;SDS011;6073;53.230;10.444;2023-02-08T11:51:31;21.95;;;13.13;;
12024;SDS011;6073;53.230;10.444;2023-02-08T11:54:01;21.67;;;12.27;;
12024;SDS011;6073;53.230;10.444;2023-02-08T11:56:29;20.88;;;12.90;;
12024;SDS011;6073;53.230;10.444;2023-02-08T11:58:58;22.42;;;13.15;;
12024;SDS011;6073;53.230;10.444;2023-02-08T12:01:44;23.30;;;14.25;;
12024;SDS011;6073;53.230;10.444;2023-02-08T12:04:10;25.90;;;13.77;;
12024;SDS011;6073;53.230;10.444;2023-02-08T12:06:46;26.83;;;14.10;;
12024;SDS011;6073;53.230;10.444;2023-02-08T12:09:22;24.55;;;14.77;;
12024;SDS011;6073;53.230;10.444;2023-02-08T12:12:08;22.38;;;13.60;;
12024;SDS011;6073;53.230;10.444;2023-02-08T12:15:01;25.70;;;13.82;;
12024;SDS011;6073;53.230;10.444;2023-02-08T12:18:00;22.58;;;13.85;;
12024;SDS011;6073;53.230;10.444;2023-02-08T12:20:43;23.15;;;14.80;;
12024;SDS011;6073;53.230;10.444;2023-02-08T12:28:45;23.83;;;15.15;;
12024;SDS011;6073;53.230;10.444;2023-02-08T12:34:16;25.02;;;15.20;;
12024;SDS011;6073;53.230;10.444;2023-02-08T12:46:21;25.33;;;14.00;;
12024;SDS011;6073;53.230;10.444;2023-02-08T12:52:02;24.30;;;14.15;;
12024;SDS011;6073;53.230;10.444;2023-02-08T12:54:35;26.58;;;14.75;;
12024;SDS011;6073;53.230;10.444;2023-02-08T12:57:08;27.00;;;15.05;;
12024;SDS011;6073;53.230;10.444;2023-02-08T12:59:39;24.15;;;13.45;;
12024;SDS011;6073;53.230;10.444;2023-02-08T13:02:17;23.33;;;13.90;;
12024;SDS011;6073;53.230;10.444;2023-02-08T13:05:11;21.15;;;12.48;;
12024;SDS011;6073;53.230;10.444;2023-02-08T13:07:42;21.27;;;13.43;;
12024;SDS011;6073;53.230;10.444;2023-02-08T13:10:21;19.20;;;12.13;;
12024;SDS011;6073;53.230;10.444;2023-02-08T13:12:56;23.85;;;12.73;;
12024;SDS011;6073;53.230;10.444;2023-02-08T13:15:34;19.27;;;12.05;;
12024;SDS011;6073;53.230;10.444;2023-02-08T13:18:11;21.08;;;12.95;;
12024;SDS011;6073;53.230;10.444;2023-02-08T13:21:06;20.58;;;12.35;;
12024;SDS011;6073;53.230;10.444;2023-02-08T13:23:37;18.77;;;11.80;;
12024;SDS011;6073;53.230;10.444;2023-02-08T13:26:23;18.77;;;12.35;;
12024;SDS011;6073;53.230;10.444;2023-02-08T13:28:56;17.35;;;11.30;;
12024;SDS011;6073;53.230;10.444;2023-02-08T13:31:33;20.30;;;12.95;;
12024;SDS011;6073;53.230;10.444;2023-02-08T13:36:48;22.15;;;13.45;;
12024;SDS011;6073;53.230;10.444;2023-02-08T13:39:29;24.23;;;13.48;;
12024;SDS011;6073;53.230;10.444;2023-02-08T13:41:58;20.15;;;11.85;;
12024;SDS011;6073;53.230;10.444;2023-02-08T13:44:30;19.77;;;11.45;;
12024;SDS011;6073;53.230;10.444;2023-02-08T13:47:02;20.85;;;12.45;;
12024;SDS011;6073;53.230;10.444;2023-02-08T13:52:47;17.42;;;10.85;;
12024;SDS011;6073;53.230;10.444;2023-02-08T13:57:53;17.90;;;10.88;;
12024;SDS011;6073;53.230;10.444;2023-02-08T14:00:27;17.55;;;11.02;;
12024;SDS011;6073;53.230;10.444;2023-02-08T14:08:27;21.73;;;13.73;;
12024;SDS011;6073;53.230;10.444;2023-02-08T14:11:38;20.95;;;13.30;;
12024;SDS011;6073;53.230;10.444;2023-02-08T14:14:15;20.40;;;12.95;;
12024;SDS011;6073;53.230;10.444;2023-02-08T14:16:45;19.88;;;12.50;;
12024;SDS011;6073;53.230;10.444;2023-02-08T14:19:27;19.83;;;12.75;;
12024;SDS011;6073;53.230;10.444;2023-02-08T14:24:30;21.08;;;12.93;;
12024;SDS011;6073;53.230;10.444;2023-02-08T14:30:01;20.35;;;12.55;;
12024;SDS011;6073;53.230;10.444;2023-02-08T14:32:53;22.95;;;13.48;;
12024;SDS011;6073;53.230;10.444;2023-02-08T14:35:25;19.00;;;12.32;;
12024;SDS011;6073;53.230;10.444;2023-02-08T14:38:30;19.48;;;12.40;;
12024;SDS011;6073;53.230;10.444;2023-02-08T14:40:47;18.45;;;11.82;;
12024;SDS011;6073;53.230;10.444;2023-02-08T14:46:40;17.60;;;11.27;;
12024;SDS011;6073;53.230;10.444;2023-02-08T14:49:02;16.80;;;11.90;;
12024;SDS011;6073;53.230;10.444;2023-02-08T14:51:34;20.00;;;12.90;;
12024;SDS011;6073;53.230;10.444;2023-02-08T14:54:09;20.25;;;11.93;;
12024;SDS011;6073;53.230;10.444;2023-02-08T14:56:46;20.88;;;12.60;;
12024;SDS011;6073;53.230;10.444;2023-02-08T14:59:32;18.80;;;11.38;;
12024;SDS011;6073;53.230;10.444;2023-02-08T15:02:00;20.42;;;12.07;;
12024;SDS011;6073;53.230;10.444;2023-02-08T15:04:42;19.98;;;11.82;;
12024;SDS011;6073;53.230;10.444;2023-02-08T15:10:02;19.05;;;12.18;;
12024;SDS011;6073;53.230;10.444;2023-02-08T15:12:36;19.13;;;11.45;;
12024;SDS011;6073;53.230;10.444;2023-02-08T15:15:04;17.67;;;11.38;;
12024;SDS011;6073;53.230;10.444;2023-02-08T15:17:33;20.77;;;12.07;;
12024;SDS011;6073;53.230;10.444;2023-02-08T15:20:20;21.10;;;13.15;;
12024;SDS011;6073;53.230;10.444;2023-02-08T15:23:18;17.90;;;11.18;;
12024;SDS011;6073;53.230;10.444;2023-02-08T15:25:43;18.10;;;11.20;;
12024;SDS011;6073;53.230;10.444;2023-02-08T15:28:23;19.70;;;12.00;;
12024;SDS011;6073;53.230;10.444;2023-02-08T15:30:53;17.00;;;11.18;;
12024;SDS011;6073;53.230;10.444;2023-02-08T15:33:24;16.27;;;10.93;;
12024;SDS011;6073;53.230;10.444;2023-02-08T15:36:00;16.85;;;10.80;;
12024;SDS011;6073;53.230;10.444;2023-02-08T15:38:29;17.50;;;10.80;;
12024;SDS011;6073;53.230;10.444;2023-02-08T15:41:02;20.23;;;11.93;;
12024;SDS011;6073;53.230;10.444;2023-02-08T15:43:30;17.23;;;11.10;;
12024;SDS011;6073;53.230;10.444;2023-02-08T15:46:01;18.92;;;10.93;;
12024;SDS011;6073;53.230;10.444;2023-02-08T15:48:29;18.30;;;11.32;;
12024;SDS011;6073;53.230;10.444;2023-02-08T15:50:57;18.75;;;11.93;;
12024;SDS011;6073;53.230;10.444;2023-02-08T15:53:24;18.50;;;11.40;;
12024;SDS011;6073;53.230;10.444;2023-02-08T15:55:51;15.75;;;10.27;;
12024;SDS011;6073;53.230;10.444;2023-02-08T15:58:29;18.38;;;11.57;;
12024;SDS011;6073;53.230;10.444;2023-02-08T16:00:58;19.10;;;11.90;;
12024;SDS011;6073;53.230;10.444;2023-02-08T16:03:26;17.52;;;11.55;;
12024;SDS011;6073;53.230;10.444;2023-02-08T16:05:57;20.90;;;12.45;;
12024;SDS011;6073;53.230;10.444;2023-02-08T16:08:27;21.58;;;12.15;;
12024;SDS011;6073;53.230;10.444;2023-02-08T16:10:58;19.45;;;11.63;;
12024;SDS011;6073;53.230;10.444;2023-02-08T16:13:35;19.70;;;11.57;;
12024;SDS011;6073;53.230;10.444;2023-02-08T16:18:59;18.70;;;12.25;;
12024;SDS011;6073;53.230;10.444;2023-02-08T16:21:33;19.90;;;12.23;;
12024;SDS011;6073;53.230;10.444;2023-02-08T16:26:44;21.65;;;13.02;;
12024;SDS011;6073;53.230;10.444;2023-02-08T16:29:18;21.95;;;13.48;;
12024;SDS011;6073;53.230;10.444;2023-02-08T16:31:47;21.60;;;13.38;;
12024;SDS011;6073;53.230;10.444;2023-02-08T16:34:20;23.08;;;14.10;;
12024;SDS011;6073;53.230;10.444;2023-02-08T16:36:48;22.52;;;14.15;;
12024;SDS011;6073;53.230;10.444;2023-02-08T16:44:27;28.02;;;16.73;;
12024;SDS011;6073;53.230;10.444;2023-02-08T16:46:55;28.48;;;17.55;;